Time;durP1;ratioP1;P1;durP2;ratioP2;P2;SDS_P1;SDS_P2;PMS_P1;PMS_P2;Temp;Humidity;BMP_temperature;BMP_pressure;BME280_temperature;BME280_humidity;BME280_pressure;Samples;Min_cycle;Max_cycle;Signal;HPM_P1;HPM_P2
2022/10/17 00:00:42;;;;;;;18.52;7.50;;;;;;;8.02;67.40;95199.91;5147091;27;20068;-82
2022/10/17 00:03:08;;;;;;;33.25;12.93;;;;;;;7.97;67.33;95211.28;5146927;27;20090;-82
2022/10/17 00:05:37;;;;;;;28.40;11.25;;;;;;;7.95;67.53;95204.66;5146659;27;20332;-82
2022/10/17 00:08:03;;;;;;;19.38;9.20;;;;;;;7.89;67.61;95200.41;5146794;27;20031;-82
2022/10/17 00:10:28;;;;;;;15.80;7.47;;;;;;;7.87;67.65;95203.31;5146607;27;20019;-82
2022/10/17 00:12:53;;;;;;;18.02;8.27;;;;;;;7.83;67.76;95195.06;5146765;27;20015;-82
2022/10/17 00:15:20;;;;;;;16.27;7.20;;;;;;;7.85;67.91;95200.13;5146688;27;20372;-83
2022/10/17 00:17:46;;;;;;;16.40;6.82;;;;;;;7.81;67.98;95201.72;5146621;27;20026;-81
2022/10/17 00:20:11;;;;;;;13.63;5.53;;;;;;;7.77;68.04;95209.38;5146589;27;20027;-81
2022/10/17 00:22:37;;;;;;;11.80;6.55;;;;;;;7.78;68.14;95207.56;5146652;27;20015;-81
2022/10/17 00:25:02;;;;;;;10.10;5.72;;;;;;;7.77;68.13;95204.09;5146518;27;20018;-81
2022/10/17 00:27:28;;;;;;;8.13;5.35;;;;;;;7.75;68.17;95205.41;5146261;27;20041;-81
2022/10/17 00:29:53;;;;;;;13.77;5.68;;;;;;;7.71;68.00;95199.81;5146406;27;20186;-81
2022/10/17 00:32:19;;;;;;;9.30;6.00;;;;;;;7.69;68.35;95201.94;5146452;27;20123;-81
2022/10/17 00:34:45;;;;;;;11.75;6.53;;;;;;;7.69;67.93;95207.25;5146167;27;20041;-81
2022/10/17 00:37:10;;;;;;;11.68;6.63;;;;;;;7.67;68.25;95209.38;5146254;27;20035;-81
2022/10/17 00:39:36;;;;;;;12.95;6.72;;;;;;;7.63;68.55;95202.97;5146146;27;20261;-81
2022/10/17 00:42:01;;;;;;;11.95;6.70;;;;;;;7.62;68.22;95212.03;5146161;27;20064;-82
2022/10/17 00:44:30;;;;;;;13.70;7.03;;;;;;;7.61;68.44;95210.41;5146278;27;20224;-81
2022/10/17 00:47:03;;;;;;;17.70;7.38;;;;;;;7.58;68.67;95216.25;5146118;27;20022;-82
2022/10/17 00:49:33;;;;;;;12.10;6.43;;;;;;;7.53;68.85;95217.03;5146070;27;20239;-81
2022/10/17 00:52:02;;;;;;;10.02;5.88;;;;;;;7.49;68.88;95215.16;5146027;27;20031;-81
2022/10/17 00:54:32;;;;;;;10.05;4.97;;;;;;;7.46;68.97;95221.00;5145992;27;20030;-81
2022/10/17 00:56:58;;;;;;;10.77;5.72;;;;;;;7.43;69.09;95215.16;5145687;27;20284;-81
2022/10/17 00:59:24;;;;;;;12.65;5.90;;;;;;;7.38;69.04;95211.66;5146121;27;20023;-81
2022/10/17 01:02:06;;;;;;;12.02;6.13;;;;;;;7.33;69.35;95219.63;5145631;27;20211;-81
2022/10/17 01:04:31;;;;;;;11.50;6.35;;;;;;;7.31;69.50;95213.78;5145869;27;20084;-81
2022/10/17 01:06:57;;;;;;;9.48;5.55;;;;;;;7.31;69.31;95217.22;5145519;27;20014;-81
2022/10/17 01:09:23;;;;;;;10.95;5.95;;;;;;;7.32;69.50;95218.00;5144706;27;20359;-80
2022/10/17 01:12:10;;;;;;;10.77;5.65;;;;;;;7.28;69.38;95212.41;5145427;27;20026;-80
2022/10/17 01:14:49;;;;;;;13.60;5.85;;;;;;;7.26;69.43;95225.13;5145379;27;20015;-81
2022/10/17 01:17:20;;;;;;;14.32;6.75;;;;;;;7.21;69.52;95214.53;5145209;27;20023;-80
2022/10/17 01:20:19;;;;;;;12.77;6.68;;;;;;;7.18;69.83;95217.66;5145396;27;20019;-80
2022/10/17 01:22:55;;;;;;;15.40;7.93;;;;;;;7.17;69.84;95211.56;5145243;27;20392;-80
2022/10/17 01:25:35;;;;;;;14.85;7.68;;;;;;;7.20;69.60;95204.94;5145350;27;20224;-80
2022/10/17 01:28:54;;;;;;;13.75;7.00;;;;;;;7.19;69.56;95217.41;5145189;27;20031;-80
2022/10/17 01:31:46;;;;;;;10.43;6.20;;;;;;;7.21;69.45;95223.25;5102314;28;20096;-80
2022/10/17 01:34:18;;;;;;;16.33;7.00;;;;;;;7.19;69.66;95219.28;5144644;27;20214;-80
2022/10/17 01:36:49;;;;;;;14.65;7.85;;;;;;;7.19;69.56;95200.72;5145088;27;20331;-80
2022/10/17 01:39:42;;;;;;;15.73;6.60;;;;;;;7.19;69.32;95209.47;5144939;27;20034;-80
2022/10/17 01:42:20;;;;;;;12.55;6.18;;;;;;;7.20;69.21;95210.25;5136264;27;20035;-80
2022/10/17 01:44:58;;;;;;;14.40;7.78;;;;;;;7.17;69.34;95221.41;5144861;27;20061;-81
2022/10/17 01:47:29;;;;;;;12.55;7.47;;;;;;;7.19;69.37;95221.94;5145251;27;20276;-80
2022/10/17 01:50:00;;;;;;;15.85;8.23;;;;;;;7.21;69.35;95223.25;5145000;27;20019;-81
2022/10/17 01:52:31;;;;;;;13.87;7.43;;;;;;;7.22;69.37;95222.22;5144859;27;20015;-81
2022/10/17 01:55:06;;;;;;;14.00;7.20;;;;;;;7.22;69.17;95227.53;5144879;27;20007;-80
2022/10/17 01:57:36;;;;;;;10.90;6.60;;;;;;;7.21;69.24;95219.81;5144545;27;20458;-80
2022/10/17 02:00:06;;;;;;;20.25;7.70;;;;;;;7.23;69.11;95229.09;5144781;27;20046;-81
2022/10/17 02:02:33;;;;;;;11.40;6.75;;;;;;;7.19;68.89;95219.28;5144626;27;20312;-81
2022/10/17 02:05:03;;;;;;;16.13;7.28;;;;;;;7.18;68.98;95223.75;5144459;27;20365;-80
2022/10/17 02:07:28;;;;;;;16.85;8.57;;;;;;;7.16;68.96;95227.75;5144659;27;20080;-81
2022/10/17 02:09:54;;;;;;;17.60;6.93;;;;;;;7.11;69.04;95220.56;5144672;27;20018;-82
2022/10/17 02:12:31;;;;;;;12.07;7.47;;;;;;;7.11;69.18;95227.72;5144423;27;20213;-81
2022/10/17 02:15:15;;;;;;;14.05;7.45;;;;;;;7.09;69.19;95230.63;5144252;27;20098;-81
2022/10/17 02:17:59;;;;;;;13.07;6.82;;;;;;;7.04;69.38;95233.22;5144235;27;20071;-81
2022/10/17 02:20:34;;;;;;;12.60;6.90;;;;;;;7.00;69.68;95232.16;5144150;27;20019;-82
2022/10/17 02:23:10;;;;;;;13.15;6.85;;;;;;;6.96;69.60;95231.88;5144371;27;20312;-82
2022/10/17 02:25:50;;;;;;;12.50;6.88;;;;;;;6.92;69.75;95236.09;5144197;27;20320;-82
2022/10/17 02:28:23;;;;;;;12.02;6.68;;;;;;;6.89;69.69;95235.81;5144180;27;20035;-83
2022/10/17 02:30:56;;;;;;;9.00;6.07;;;;;;;6.85;69.85;95234.72;5143054;27;20031;-83
2022/10/17 02:33:34;;;;;;;11.93;5.90;;;;;;;6.82;69.79;95236.03;5144149;27;20224;-83
2022/10/17 02:36:04;;;;;;;14.77;6.35;;;;;;;6.81;69.65;95245.81;5143849;27;20034;-83
2022/10/17 02:38:33;;;;;;;9.93;5.53;;;;;;;6.80;69.46;95244.25;5143211;27;20027;-83
2022/10/17 02:40:59;;;;;;;12.15;6.43;;;;;;;6.81;69.33;95248.47;5144040;27;20250;-83
2022/10/17 02:43:25;;;;;;;9.15;5.15;;;;;;;6.81;69.16;95247.69;5144341;27;20023;-82
2022/10/17 02:45:51;;;;;;;12.55;6.32;;;;;;;6.77;68.97;95251.91;5144135;27;20094;-82
2022/10/17 02:48:31;;;;;;;12.20;5.28;;;;;;;6.74;68.60;95255.84;5143852;27;20027;-82
2022/10/17 02:51:07;;;;;;;9.63;6.05;;;;;;;6.71;68.85;95260.84;5144149;27;20049;-81
2022/10/17 02:53:56;;;;;;;8.60;4.88;;;;;;;6.67;69.00;95259.78;5143905;27;20369;-82
2022/10/17 02:56:24;;;;;;;12.55;5.57;;;;;;;6.60;69.52;95266.09;5143792;27;20057;-82
2022/10/17 02:58:55;;;;;;;10.05;5.40;;;;;;;6.60;69.51;95271.38;5143973;27;20062;-81
2022/10/17 03:01:20;;;;;;;8.35;5.03;;;;;;;6.57;69.33;95263.97;5144004;27;20216;-82
2022/10/17 03:03:46;;;;;;;9.32;5.05;;;;;;;6.55;69.64;95265.25;5143673;27;20027;-82
2022/10/17 03:06:11;;;;;;;11.20;5.20;;;;;;;6.53;69.37;95262.84;5143852;27;20022;-82
2022/10/17 03:08:37;;;;;;;8.90;5.30;;;;;;;6.54;69.32;95266.31;5143708;27;20023;-81
2022/10/17 03:11:02;;;;;;;12.02;5.18;;;;;;;6.57;69.56;95268.44;5143821;27;20023;-82
2022/10/17 03:13:29;;;;;;;14.00;5.55;;;;;;;6.56;69.64;95274.78;5143755;27;20134;-82
2022/10/17 03:15:55;;;;;;;11.90;5.25;;;;;;;6.56;69.38;95275.59;5142586;28;20019;-81
2022/10/17 03:18:21;;;;;;;10.02;5.90;;;;;;;6.60;69.61;95278.53;5143907;27;20094;-82
2022/10/17 03:20:47;;;;;;;9.23;5.00;;;;;;;6.54;69.93;95272.41;5143786;27;20015;-82
2022/10/17 03:23:12;;;;;;;7.75;4.55;;;;;;;6.56;69.39;95274.78;5142521;28;20026;-81
2022/10/17 03:25:38;;;;;;;8.60;4.80;;;;;;;6.54;69.41;95277.69;5143455;27;20018;-81
2022/10/17 03:28:04;;;;;;;9.25;5.13;;;;;;;6.53;69.75;95276.06;5143562;27;20034;-82
2022/10/17 03:30:30;;;;;;;9.85;4.40;;;;;;;6.51;69.28;95267.59;5143475;27;20094;-81
2022/10/17 03:32:59;;;;;;;9.55;4.97;;;;;;;6.49;69.48;95279.50;5145822;27;20026;-82
2022/10/17 03:35:25;;;;;;;10.40;5.20;;;;;;;6.45;70.03;95281.84;5147512;27;20027;-82
2022/10/17 03:37:51;;;;;;;12.15;6.22;;;;;;;6.41;70.14;95280.75;5147445;27;20026;-82
2022/10/17 03:40:17;;;;;;;11.30;5.85;;;;;;;6.43;70.50;95276.81;5147239;27;20023;-82
2022/10/17 03:42:43;;;;;;;11.70;5.47;;;;;;;6.42;70.46;95279.72;5147299;27;20091;-81
2022/10/17 03:45:08;;;;;;;14.98;6.03;;;;;;;6.41;70.53;95283.41;5147216;27;20015;-82
2022/10/17 03:47:34;;;;;;;15.85;7.72;;;;;;;6.36;70.56;95280.72;5147072;27;20099;-81
2022/10/17 03:49:59;;;;;;;15.52;6.45;;;;;;;6.36;71.13;95288.66;5147283;27;20007;-80
2022/10/17 03:52:25;;;;;;;10.23;6.18;;;;;;;6.30;70.69;95282.50;5147327;27;20050;-80
2022/10/17 03:54:50;;;;;;;13.13;6.13;;;;;;;6.26;71.20;95286.72;5145919;27;20098;-80
2022/10/17 03:57:17;;;;;;;10.88;6.80;;;;;;;6.20;71.40;95295.66;5146929;27;20054;-81
2022/10/17 03:59:42;;;;;;;12.52;6.75;;;;;;;6.15;71.46;95291.13;5147151;27;20019;-81
2022/10/17 04:02:07;;;;;;;14.05;6.38;;;;;;;6.10;71.62;95293.69;5146973;27;20289;-81
2022/10/17 04:04:33;;;;;;;11.35;6.85;;;;;;;6.10;71.49;95288.41;5146838;27;20015;-81
2022/10/17 04:06:58;;;;;;;11.43;5.63;;;;;;;6.10;71.53;95293.69;5146859;27;20041;-81
2022/10/17 04:09:24;;;;;;;13.40;6.22;;;;;;;6.09;71.56;95294.75;5146856;27;20090;-81
2022/10/17 04:11:49;;;;;;;17.05;7.60;;;;;;;6.10;71.22;95292.91;5146614;27;20027;-81
2022/10/17 04:14:15;;;;;;;13.13;7.55;;;;;;;6.05;71.22;95285.72;5146820;27;20372;-81
2022/10/17 04:16:40;;;;;;;14.82;6.82;;;;;;;6.05;70.96;95296.31;5146872;27;20050;-81
2022/10/17 04:19:06;;;;;;;19.40;7.38;;;;;;;6.02;70.62;95294.97;5146718;27;20050;-80
2022/10/17 04:21:31;;;;;;;12.77;6.75;;;;;;;6.01;70.65;95303.16;5146534;27;20023;-81
2022/10/17 04:23:58;;;;;;;19.33;7.38;;;;;;;5.99;70.77;95294.66;5146690;27;20266;-82
2022/10/17 04:26:25;;;;;;;17.02;7.03;;;;;;;5.94;70.98;95305.13;5146702;27;20086;-80
2022/10/17 04:28:51;;;;;;;15.63;7.88;;;;;;;5.95;71.79;95298.84;5146310;27;20034;-81
2022/10/17 04:31:17;;;;;;;10.38;6.07;;;;;;;5.93;72.08;95304.34;5146682;27;20050;-82
2022/10/17 04:33:46;;;;;;;14.55;6.93;;;;;;;5.95;71.73;95301.50;5146547;27;20257;-82
2022/10/17 04:36:13;;;;;;;10.95;6.22;;;;;;;5.94;71.44;95303.31;5146168;27;20131;-82
2022/10/17 04:38:39;;;;;;;18.58;7.15;;;;;;;5.95;71.41;95297.00;5146493;27;20026;-81
2022/10/17 04:41:07;;;;;;;11.10;6.65;;;;;;;5.96;71.21;95309.19;5146575;27;20019;-81
2022/10/17 04:43:35;;;;;;;14.57;7.03;;;;;;;5.91;71.25;95298.50;5147134;27;20030;-81
2022/10/17 04:46:03;;;;;;;32.35;7.45;;;;;;;5.90;71.21;95301.38;5145426;27;20022;-82
2022/10/17 04:48:29;;;;;;;12.48;6.43;;;;;;;5.89;71.14;95313.81;5146808;27;20046;-83
2022/10/17 04:50:59;;;;;;;15.85;6.90;;;;;;;5.88;71.19;95306.13;5145227;27;20094;-82
2022/10/17 04:53:25;;;;;;;21.45;7.88;;;;;;;5.89;71.24;95318.31;5146288;27;20086;-82
2022/10/17 04:55:51;;;;;;;38.38;7.38;;;;;;;5.83;71.47;95315.59;5145606;27;20098;-81
2022/10/17 04:58:16;;;;;;;23.17;7.63;;;;;;;5.83;71.43;95318.25;5145851;27;20030;-81
2022/10/17 05:00:42;;;;;;;25.83;7.22;;;;;;;5.83;71.71;95314.81;5145799;27;20018;-82
2022/10/17 05:03:07;;;;;;;18.88;8.25;;;;;;;5.82;71.75;95316.66;5145864;27;20023;-81
2022/10/17 05:05:36;;;;;;;30.65;7.68;;;;;;;5.85;71.92;95328.59;5144303;27;20026;-81
2022/10/17 05:08:02;;;;;;;20.30;7.85;;;;;;;5.86;72.24;95322.25;5145678;27;20026;-81
2022/10/17 05:10:27;;;;;;;17.42;8.88;;;;;;;5.89;72.09;95334.22;5144451;27;20224;-80
2022/10/17 05:12:52;;;;;;;16.38;7.47;;;;;;;5.89;72.30;95329.72;5145863;27;20023;-81
2022/10/17 05:15:18;;;;;;;17.08;7.72;;;;;;;5.90;72.22;95327.84;5144618;27;20015;-80
2022/10/17 05:17:43;;;;;;;12.25;7.18;;;;;;;5.93;72.50;95337.97;5144389;27;20061;-81
2022/10/17 05:20:09;;;;;;;15.98;7.57;;;;;;;5.98;72.49;95343.31;5145254;27;20060;-81
2022/10/17 05:22:35;;;;;;;17.38;8.13;;;;;;;6.01;72.65;95343.63;5145286;27;20025;-78
2022/10/17 05:25:00;;;;;;;16.05;8.45;;;;;;;6.05;72.65;95343.94;5145169;27;20363;-77
2022/10/17 05:27:26;;;;;;;19.38;8.30;;;;;;;6.08;72.90;95348.72;5144281;27;20274;-79
2022/10/17 05:29:51;;;;;;;13.57;8.00;;;;;;;6.12;72.99;95346.41;5145021;27;20090;-80
2022/10/17 05:32:17;;;;;;;15.05;8.35;;;;;;;6.17;72.97;95349.13;5145202;27;20098;-77
2022/10/17 05:34:42;;;;;;;20.17;9.85;;;;;;;6.22;73.06;95357.88;5145025;27;20019;-77
2022/10/17 05:37:08;;;;;;;17.15;9.32;;;;;;;6.29;72.92;95359.53;5144922;27;20027;-78
2022/10/17 05:39:33;;;;;;;17.85;9.20;;;;;;;6.35;72.81;95359.38;5145358;27;20031;-77
2022/10/17 05:41:58;;;;;;;21.60;8.68;;;;;;;6.43;72.48;95358.09;5143996;27;20083;-78
2022/10/17 05:44:24;;;;;;;23.38;9.88;;;;;;;6.40;72.42;95353.31;5144878;27;20255;-76
2022/10/17 05:46:50;;;;;;;21.20;9.35;;;;;;;6.50;72.22;95356.06;5144572;27;20027;-77
2022/10/17 05:49:16;;;;;;;17.38;9.32;;;;;;;6.57;71.86;95354.03;5144854;27;20031;-77
2022/10/17 05:51:41;;;;;;;16.92;9.25;;;;;;;6.63;71.52;95360.16;5144791;27;20034;-78
2022/10/17 05:54:07;;;;;;;16.05;9.38;;;;;;;6.70;71.15;95355.47;5144679;27;20262;-75
2022/10/17 05:56:33;;;;;;;16.02;9.65;;;;;;;6.75;71.10;95362.66;5144265;27;20355;-75
2022/10/17 05:58:58;;;;;;;19.10;9.68;;;;;;;6.77;71.26;95371.16;5144678;27;20035;-75
2022/10/17 06:01:24;;;;;;;20.75;9.07;;;;;;;6.77;71.50;95368.50;5144662;27;20026;-75
2022/10/17 06:03:49;;;;;;;18.08;9.18;;;;;;;6.77;71.75;95374.59;5144632;27;20035;-76
2022/10/17 06:06:16;;;;;;;24.92;9.88;;;;;;;6.81;71.86;95380.97;5144364;27;20023;-75
2022/10/17 06:08:41;;;;;;;25.17;10.48;;;;;;;6.92;71.95;95386.38;5144591;27;20027;-75
2022/10/17 06:11:07;;;;;;;19.88;10.27;;;;;;;6.96;71.42;95390.94;5144182;27;20022;-74
2022/10/17 06:13:32;;;;;;;19.48;10.05;;;;;;;6.87;70.87;95392.44;5144354;27;20087;-74
2022/10/17 06:15:58;;;;;;;23.27;10.82;;;;;;;6.85;70.75;95389.25;5143152;27;20019;-76
2022/10/17 06:18:25;;;;;;;33.75;11.90;;;;;;;6.85;70.58;95394.53;5144101;27;20042;-76
2022/10/17 06:20:51;;;;;;;27.05;10.40;;;;;;;6.79;71.02;95395.53;5143024;27;20217;-79
2022/10/17 06:23:16;;;;;;;29.02;11.10;;;;;;;6.85;71.17;95397.19;5144378;27;20242;-78
2022/10/17 06:25:42;;;;;;;32.30;11.43;;;;;;;6.87;71.58;95397.75;5144086;27;20091;-79
2022/10/17 06:28:07;;;;;;;29.23;11.18;;;;;;;6.92;71.58;95404.94;5143927;27;20288;-75
2022/10/17 06:30:33;;;;;;;27.85;11.70;;;;;;;6.96;71.38;95401.53;5143899;27;20029;-77
2022/10/17 06:32:58;;;;;;;36.75;11.90;;;;;;;7.05;71.52;95401.88;5143961;27;20090;-76
2022/10/17 06:35:23;;;;;;;34.55;12.40;;;;;;;7.15;71.78;95419.72;5143976;27;20015;-78
2022/10/17 06:37:49;;;;;;;25.15;10.88;;;;;;;7.22;70.67;95421.13;5143874;27;20019;-77
2022/10/17 06:40:15;;;;;;;24.38;12.35;;;;;;;7.28;70.02;95429.91;5143926;28;20028;-77
2022/10/17 06:42:41;;;;;;;29.05;11.85;;;;;;;7.33;69.61;95422.00;5143877;27;20324;-78
2022/10/17 06:45:08;;;;;;;26.05;11.25;;;;;;;7.38;69.59;95429.19;5143845;27;20030;-78
2022/10/17 06:47:34;;;;;;;25.75;12.15;;;;;;;7.43;69.02;95430.03;5144106;27;20019;-79
2022/10/17 06:50:00;;;;;;;26.27;11.20;;;;;;;7.47;68.55;95430.31;5143975;27;20114;-78
2022/10/17 06:52:25;;;;;;;27.58;11.35;;;;;;;7.54;68.71;95427.44;5144397;27;20019;-79
2022/10/17 06:54:51;;;;;;;25.42;11.60;;;;;;;7.64;68.61;95432.81;5144563;27;20257;-80
2022/10/17 06:57:17;;;;;;;32.17;11.02;;;;;;;7.72;68.32;95424.38;5143889;27;20205;-78
2022/10/17 06:59:42;;;;;;;23.70;12.25;;;;;;;7.81;68.31;95417.50;5144020;27;20027;-80
2022/10/17 07:02:09;;;;;;;28.60;12.27;;;;;;;7.89;68.66;95426.06;5143830;28;20335;-78
2022/10/17 07:04:35;;;;;;;27.83;13.40;;;;;;;8.01;68.56;95416.03;5143713;27;20343;-79
2022/10/17 07:07:01;;;;;;;26.30;13.15;;;;;;;7.93;68.57;95419.97;5144565;27;20027;-79
2022/10/17 07:09:28;;;;;;;27.80;12.88;;;;;;;8.10;68.06;95419.81;5148072;27;20053;-78
2022/10/17 07:11:53;;;;;;;31.63;12.63;;;;;;;8.23;67.74;95419.31;5148240;27;20094;-79
2022/10/17 07:14:19;;;;;;;34.92;11.70;;;;;;;8.36;67.33;95420.69;5147965;27;20030;-79
2022/10/17 07:16:44;;;;;;;23.67;12.60;;;;;;;8.43;66.91;95415.19;5147731;27;20309;-78
2022/10/17 07:19:10;;;;;;;21.77;12.35;;;;;;;8.46;66.57;95419.16;5147898;27;20289;-80
2022/10/17 07:21:35;;;;;;;34.42;11.90;;;;;;;8.49;66.62;95422.09;5147812;27;20335;-78
2022/10/17 07:24:01;;;;;;;32.78;11.77;;;;;;;8.60;65.87;95421.06;5146506;27;20050;-78
2022/10/17 07:26:26;;;;;;;24.25;13.27;;;;;;;8.66;65.90;95419.22;5147548;27;20031;-76
2022/10/17 07:28:54;;;;;;;23.08;13.27;;;;;;;8.75;65.76;95415.00;5147666;27;20047;-77
2022/10/17 07:31:21;;;;;;;29.55;13.07;;;;;;;8.89;65.26;95430.44;5147537;27;20023;-75
2022/10/17 07:33:47;;;;;;;30.88;14.57;;;;;;;8.97;65.44;95425.38;5147370;27;20034;-75
2022/10/17 07:36:13;;;;;;;24.95;12.80;;;;;;;9.12;65.06;95429.94;5147461;27;20019;-76
2022/10/17 07:38:39;;;;;;;29.60;12.23;;;;;;;9.24;64.73;95427.81;5147380;27;20271;-75
2022/10/17 07:41:07;;;;;;;27.63;12.75;;;;;;;9.31;64.52;95424.88;5147312;27;20030;-74
2022/10/17 07:43:35;;;;;;;31.05;11.82;;;;;;;9.50;64.31;95438.44;5147337;27;20220;-75
2022/10/17 07:46:01;;;;;;;30.42;11.55;;;;;;;9.64;63.82;95439.50;5147133;27;20225;-75
2022/10/17 07:48:27;;;;;;;20.85;10.75;;;;;;;9.80;62.96;95440.28;5147118;27;20340;-75
2022/10/17 07:50:52;;;;;;;22.30;9.82;;;;;;;9.95;62.36;95435.97;5147100;27;20027;-75
2022/10/17 07:53:18;;;;;;;16.58;7.20;;;;;;;10.11;61.35;95436.75;5146943;27;20033;-75
2022/10/17 07:55:45;;;;;;;19.80;8.27;;;;;;;10.21;61.64;95431.38;5147073;27;20106;-75
2022/10/17 07:58:11;;;;;;;24.75;7.82;;;;;;;10.37;60.93;95432.16;5146982;27;20031;-75
2022/10/17 08:00:37;;;;;;;23.75;8.73;;;;;;;10.51;60.65;95443.03;5147085;27;20262;-75
2022/10/17 08:03:03;;;;;;;20.10;8.95;;;;;;;10.60;60.04;95430.72;5147015;27;20023;-76
2022/10/17 08:05:29;;;;;;;20.77;9.65;;;;;;;10.73;59.69;95429.34;5146648;27;20043;-75
2022/10/17 08:07:55;;;;;;;21.70;8.18;;;;;;;10.88;58.82;95437.25;5147049;27;20046;-75
2022/10/17 08:10:26;;;;;;;17.45;7.95;;;;;;;11.00;57.35;95424.34;5146955;27;20275;-76
2022/10/17 08:12:52;;;;;;;16.77;7.80;;;;;;;11.11;56.70;95424.28;5146845;27;20026;-75
2022/10/17 08:15:17;;;;;;;18.35;7.95;;;;;;;11.18;56.13;95419.44;5146777;27;20324;-76
2022/10/17 08:17:43;;;;;;;18.90;7.82;;;;;;;11.33;55.84;95426.53;5146224;27;20026;-75
2022/10/17 08:20:09;;;;;;;19.33;8.05;;;;;;;11.45;55.53;95421.63;5146593;27;20031;-74
2022/10/17 08:22:34;;;;;;;18.67;8.85;;;;;;;11.55;55.41;95416.19;5146303;27;20026;-75
2022/10/17 08:25:00;;;;;;;22.02;8.45;;;;;;;11.64;54.35;95416.38;5146481;27;20019;-74
2022/10/17 08:27:27;;;;;;;18.50;8.63;;;;;;;11.72;54.29;95415.75;5146653;27;20225;-75
2022/10/17 08:29:53;;;;;;;18.17;7.68;;;;;;;11.84;54.17;95415.38;5146386;27;20064;-75
2022/10/17 08:32:20;;;;;;;19.65;9.55;;;;;;;11.86;53.54;95421.25;5146717;27;20050;-75
2022/10/17 08:34:46;;;;;;;18.48;8.73;;;;;;;11.98;52.53;95416.34;5146427;27;20026;-75
2022/10/17 08:37:14;;;;;;;20.88;8.43;;;;;;;12.11;51.20;95411.41;5145980;27;20023;-74
2022/10/17 08:39:41;;;;;;;17.50;8.63;;;;;;;12.20;50.99;95412.38;5146416;27;20034;-75
2022/10/17 08:42:18;;;;;;;24.25;8.75;;;;;;;12.28;50.80;95418.97;5146227;27;20030;-75
2022/10/17 08:45:06;;;;;;;18.73;7.68;;;;;;;12.42;50.36;95414.53;5145973;27;20372;-73
2022/10/17 08:47:39;;;;;;;16.92;6.75;;;;;;;12.53;48.88;95413.31;5146115;27;20336;-73
2022/10/17 08:50:12;;;;;;;14.77;7.93;;;;;;;12.62;48.61;95416.94;5145848;27;20094;-74
2022/10/17 08:52:50;;;;;;;12.20;7.15;;;;;;;12.79;48.22;95418.34;5146158;27;20026;-74
2022/10/17 08:55:44;;;;;;;17.92;7.43;;;;;;;12.91;48.53;95421.38;5145672;27;20418;-73
2022/10/17 08:59:02;;;;;;;31.02;11.52;;;;;;;13.00;47.34;95413.47;5145989;27;20019;-74
2022/10/17 09:01:46;;;;;;;18.90;7.25;;;;;;;13.05;46.23;95414.22;5145714;27;20075;-74
2022/10/17 09:04:33;;;;;;;19.48;6.20;;;;;;;13.15;45.86;95412.47;5144581;27;20317;-74
2022/10/17 09:07:12;;;;;;;16.05;6.43;;;;;;;13.29;42.31;95404.47;5145397;27;20026;-74
2022/10/17 09:09:56;;;;;;;13.48;6.43;;;;;;;13.30;42.33;95408.78;5145664;27;20064;-74
2022/10/17 09:12:39;;;;;;;16.92;7.60;;;;;;;13.49;42.35;95422.13;5145794;27;20023;-74
2022/10/17 09:15:34;;;;;;;17.00;8.40;;;;;;;13.59;42.91;95421.97;5145626;27;20333;-74
2022/10/17 09:18:12;;;;;;;19.50;8.10;;;;;;;13.78;43.56;95416.53;5125500;27;20031;-75
2022/10/17 09:20:43;;;;;;;25.63;8.43;;;;;;;13.93;46.57;95418.97;5145218;27;20078;-74
2022/10/17 09:23:19;;;;;;;20.80;9.10;;;;;;;13.98;42.89;95418.06;5145375;27;20027;-74
2022/10/17 09:25:58;;;;;;;19.52;8.45;;;;;;;14.12;41.71;95420.78;5145286;27;20332;-75
2022/10/17 09:28:45;;;;;;;21.85;8.10;;;;;;;14.21;41.00;95411.75;5145363;27;20045;-75
2022/10/17 09:31:19;;;;;;;20.27;8.90;;;;;;;14.34;41.36;95418.19;5143955;27;20027;-75
2022/10/17 09:33:46;;;;;;;20.60;6.78;;;;;;;14.43;41.06;95418.28;5145329;27;20144;-76
2022/10/17 09:36:20;;;;;;;19.17;7.72;;;;;;;14.52;40.18;95421.09;5143961;27;20213;-76
2022/10/17 09:38:57;;;;;;;19.77;6.65;;;;;;;14.59;39.08;95410.75;5144783;27;20026;-76
2022/10/17 09:41:31;;;;;;;17.63;6.95;;;;;;;14.59;39.27;95408.88;5145114;27;20332;-76
2022/10/17 09:43:58;;;;;;;15.15;5.85;;;;;;;14.73;39.94;95400.78;5144428;27;20091;-76
2022/10/17 09:46:35;;;;;;;20.27;5.00;;;;;;;14.85;39.65;95411.00;5144950;27;20019;-76
2022/10/17 09:49:08;;;;;;;23.50;5.50;;;;;;;14.97;37.69;95408.59;5143863;27;20098;-76
2022/10/17 09:51:36;;;;;;;12.30;4.82;;;;;;;15.12;37.54;95409.34;5144877;27;20090;-76
2022/10/17 09:54:22;;;;;;;9.60;4.70;;;;;;;15.28;37.33;95407.09;5144928;27;20093;-75
2022/10/17 09:56:57;;;;;;;13.20;4.28;;;;;;;15.34;36.61;95405.88;5144642;27;20034;-75
2022/10/17 09:59:36;;;;;;;26.63;4.68;;;;;;;15.43;35.97;95393.31;5144112;27;20019;-76
2022/10/17 10:02:13;;;;;;;12.57;3.60;;;;;;;15.53;35.58;95403.00;5144179;27;20054;-76
2022/10/17 10:04:56;;;;;;;10.63;3.45;;;;;;;15.62;34.58;95395.81;5144521;27;20323;-76
2022/10/17 10:07:26;;;;;;;12.48;3.90;;;;;;;15.72;35.37;95395.56;5144513;27;20097;-75
2022/10/17 10:09:52;;;;;;;9.20;3.20;;;;;;;15.81;34.82;95393.75;5144710;27;20098;-76
2022/10/17 10:12:27;;;;;;;9.43;3.38;;;;;;;15.89;34.22;95388.69;5144447;27;20025;-77
2022/10/17 10:14:53;;;;;;;7.85;3.72;;;;;;;15.97;34.30;95391.41;5144516;27;20030;-77
2022/10/17 10:17:28;;;;;;;12.23;4.22;;;;;;;16.04;34.92;95391.00;5144401;27;20221;-75
2022/10/17 10:19:53;;;;;;;21.48;4.00;;;;;;;16.08;33.81;95391.16;5144406;27;20034;-75
2022/10/17 10:22:24;;;;;;;8.25;3.35;;;;;;;16.15;33.63;95386.91;5144214;27;20033;-77
2022/10/17 10:25:06;;;;;;;11.82;3.40;;;;;;;16.28;34.47;95382.50;5144301;27;20030;-78
2022/10/17 10:27:32;;;;;;;7.97;3.67;;;;;;;16.24;32.22;95390.44;5144452;27;20319;-76
2022/10/17 10:29:57;;;;;;;5.07;2.10;;;;;;;16.36;32.89;95376.38;5144102;27;20027;-77
2022/10/17 10:32:30;;;;;;;5.35;2.20;;;;;;;16.45;30.88;95371.81;5143077;27;20331;-79
2022/10/17 10:34:58;;;;;;;4.80;2.50;;;;;;;16.55;31.50;95376.13;5144001;27;20030;-75
2022/10/17 10:37:25;;;;;;;5.30;2.53;;;;;;;16.65;31.85;95380.41;5144561;27;20071;-78
2022/10/17 10:39:56;;;;;;;7.20;2.50;;;;;;;16.75;31.21;95376.59;5143941;27;20034;-77
2022/10/17 10:42:34;;;;;;;7.60;3.17;;;;;;;16.86;31.81;95360.97;5143929;27;20344;-77
2022/10/17 10:45:24;;;;;;;4.43;2.20;;;;;;;16.93;30.90;95363.97;5143716;27;20018;-75
2022/10/17 10:47:58;;;;;;;7.07;2.75;;;;;;;16.95;30.16;95362.53;5143922;28;20178;-75
2022/10/17 10:50:39;;;;;;;7.65;2.97;;;;;;;16.86;31.29;95356.38;5143890;27;20042;-77
2022/10/17 10:53:25;;;;;;;4.53;2.53;;;;;;;16.76;31.33;95349.38;5143778;27;20023;-77
2022/10/17 10:55:58;;;;;;;8.55;2.85;;;;;;;16.79;32.22;95351.44;5143431;27;20035;-77
2022/10/17 10:58:32;;;;;;;21.75;3.50;;;;;;;16.95;31.88;95346.38;5143940;27;20094;-75
2022/10/17 11:01:05;;;;;;;10.07;2.92;;;;;;;17.11;32.09;95352.09;5142386;28;20023;-76
2022/10/17 11:03:48;;;;;;;6.97;2.15;;;;;;;17.23;31.67;95340.69;5143929;27;20023;-77
2022/10/17 11:06:21;;;;;;;7.63;2.72;;;;;;;17.30;31.40;95335.63;5143544;27;20265;-76
2022/10/17 11:08:57;;;;;;;13.57;3.47;;;;;;;17.43;31.46;95337.31;5143890;27;20217;-78
2022/10/17 11:11:31;;;;;;;5.32;2.40;;;;;;;17.46;30.09;95341.28;5143770;28;20019;-78
2022/10/17 11:14:05;;;;;;;5.85;2.60;;;;;;;17.53;30.28;95335.41;5143713;28;20023;-76
2022/10/17 11:16:46;;;;;;;6.93;3.13;;;;;;;17.62;30.27;95339.63;5143761;27;20023;-78
2022/10/17 11:19:23;;;;;;;5.00;2.40;;;;;;;17.57;29.90;95333.66;5143771;27;20119;-77
2022/10/17 11:22:08;;;;;;;6.82;2.85;;;;;;;17.71;29.94;95331.53;5143737;27;20023;-76
2022/10/17 11:24:42;;;;;;;10.73;2.78;;;;;;;17.82;29.94;95331.97;5143624;27;20019;-79
2022/10/17 11:27:08;;;;;;;11.95;2.67;;;;;;;17.93;28.78;95322.47;5142315;28;20064;-75
2022/10/17 11:29:39;;;;;;;5.13;2.35;;;;;;;18.03;28.92;95326.69;5143447;27;20086;-75
2022/10/17 11:32:18;;;;;;;4.93;2.40;;;;;;;18.11;27.91;95325.06;5143630;27;20094;-76
2022/10/17 11:34:48;;;;;;;6.03;2.50;;;;;;;18.21;28.05;95322.00;5143196;27;20034;-77
2022/10/17 11:37:22;;;;;;;11.50;2.10;;;;;;;18.30;27.67;95319.25;5143498;28;20019;-77
2022/10/17 11:39:52;;;;;;;6.68;2.22;;;;;;;18.48;28.20;95315.34;5143415;27;20331;-79
2022/10/17 11:42:27;;;;;;;13.05;2.40;;;;;;;18.68;27.82;95318.38;5143176;27;20034;-77
2022/10/17 11:45:00;;;;;;;4.88;1.90;;;;;;;18.75;26.08;95308.63;5143359;27;20251;-79